sensor_id;sensor_type;location;lat;lon;timestamp;pressure;altitude;pressure_sealevel;temperature;humidity
47220;BME280;32961;51.936;4.788;2023-08-30T00:00:32;100808.19;;;15.16;77.24
47220;BME280;32961;51.936;4.788;2023-08-30T00:03:00;100810.09;;;15.16;77.27
47220;BME280;32961;51.936;4.788;2023-08-30T00:05:28;100805.44;;;15.16;77.35
47220;BME280;32961;51.936;4.788;2023-08-30T00:07:56;100804.59;;;15.16;77.45
47220;BME280;32961;51.936;4.788;2023-08-30T00:10:24;100803.91;;;15.14;77.54
47220;BME280;32961;51.936;4.788;2023-08-30T00:12:52;100801.19;;;15.14;77.74
47220;BME280;32961;51.936;4.788;2023-08-30T00:15:19;100793.16;;;15.12;77.59
47220;BME280;32961;51.936;4.788;2023-08-30T00:17:49;100797.44;;;15.15;78.12
47220;BME280;32961;51.936;4.788;2023-08-30T00:20:18;100791.25;;;15.13;78.11
47220;BME280;32961;51.936;4.788;2023-08-30T00:22:47;100784.06;;;15.12;78.26
47220;BME280;32961;51.936;4.788;2023-08-30T00:25:16;100783.41;;;15.10;78.59
47220;BME280;32961;51.936;4.788;2023-08-30T00:27:43;100790.75;;;15.09;78.71
47220;BME280;32961;51.936;4.788;2023-08-30T00:30:12;100781.03;;;15.06;78.69
47220;BME280;32961;51.936;4.788;2023-08-30T00:32:40;100780.00;;;15.07;79.02
47220;BME280;32961;51.936;4.788;2023-08-30T00:35:09;100780.84;;;15.08;78.95
47220;BME280;32961;51.936;4.788;2023-08-30T00:37:37;100777.44;;;15.06;79.27
47220;BME280;32961;51.936;4.788;2023-08-30T00:40:06;100766.84;;;15.03;79.35
47220;BME280;32961;51.936;4.788;2023-08-30T00:42:34;100767.22;;;15.00;79.50
47220;BME280;32961;51.936;4.788;2023-08-30T00:45:02;100770.97;;;14.99;79.44
47220;BME280;32961;51.936;4.788;2023-08-30T00:47:29;100770.09;;;14.98;79.56
47220;BME280;32961;51.936;4.788;2023-08-30T00:49:57;100770.28;;;14.97;79.83
47220;BME280;32961;51.936;4.788;2023-08-30T00:52:27;100762.44;;;14.94;79.71
47220;BME280;32961;51.936;4.788;2023-08-30T00:54:55;100769.78;;;14.93;80.09
47220;BME280;32961;51.936;4.788;2023-08-30T00:57:22;100768.75;;;14.94;80.17
47220;BME280;32961;51.936;4.788;2023-08-30T00:59:51;100758.66;;;14.95;80.25
47220;BME280;32961;51.936;4.788;2023-08-30T01:02:21;100763.28;;;14.94;80.25
47220;BME280;32961;51.936;4.788;2023-08-30T01:04:50;100755.25;;;14.92;80.47
47220;BME280;32961;51.936;4.788;2023-08-30T01:07:18;100754.75;;;14.89;80.30
47220;BME280;32961;51.936;4.788;2023-08-30T01:09:47;100755.09;;;14.86;80.44
47220;BME280;32961;51.936;4.788;2023-08-30T01:12:20;100755.25;;;14.84;80.26
47220;BME280;32961;51.936;4.788;2023-08-30T01:14:53;100752.88;;;14.81;80.51
47220;BME280;32961;51.936;4.788;2023-08-30T01:17:25;100754.56;;;14.82;80.31
47220;BME280;32961;51.936;4.788;2023-08-30T01:19:59;100746.75;;;14.79;80.03
47220;BME280;32961;51.936;4.788;2023-08-30T01:22:38;100748.59;;;14.79;80.18
47220;BME280;32961;51.936;4.788;2023-08-30T01:25:17;100741.25;;;14.79;80.01
47220;BME280;32961;51.936;4.788;2023-08-30T01:27:50;100743.13;;;14.79;80.02
47220;BME280;32961;51.936;4.788;2023-08-30T01:30:19;100744.34;;;14.76;79.71
47220;BME280;32961;51.936;4.788;2023-08-30T01:32:49;100743.69;;;14.74;80.04
47220;BME280;32961;51.936;4.788;2023-08-30T01:35:18;100751.69;;;14.75;80.03
47220;BME280;32961;51.936;4.788;2023-08-30T01:37:49;100745.91;;;14.70;79.61
47220;BME280;32961;51.936;4.788;2023-08-30T01:40:18;100753.94;;;14.72;79.52
47220;BME280;32961;51.936;4.788;2023-08-30T01:42:48;100740.44;;;14.70;79.45
47220;BME280;32961;51.936;4.788;2023-08-30T01:45:17;100745.22;;;14.68;79.51
47220;BME280;32961;51.936;4.788;2023-08-30T01:47:47;100753.59;;;14.67;79.13
47220;BME280;32961;51.936;4.788;2023-08-30T01:50:16;100740.09;;;14.65;79.40
47220;BME280;32961;51.936;4.788;2023-08-30T01:52:44;100742.81;;;14.65;79.44
47220;BME280;32961;51.936;4.788;2023-08-30T01:55:15;100736.81;;;14.61;79.35
47220;BME280;32961;51.936;4.788;2023-08-30T01:57:43;100731.34;;;14.61;79.75
47220;BME280;32961;51.936;4.788;2023-08-30T02:00:13;100728.59;;;14.61;79.72
47220;BME280;32961;51.936;4.788;2023-08-30T02:02:41;100731.53;;;14.60;80.04
47220;BME280;32961;51.936;4.788;2023-08-30T02:05:09;100730.88;;;14.58;79.69
47220;BME280;32961;51.936;4.788;2023-08-30T02:07:43;100731.19;;;14.55;80.03
47220;BME280;32961;51.936;4.788;2023-08-30T02:10:17;100736.84;;;14.53;80.14
47220;BME280;32961;51.936;4.788;2023-08-30T02:12:47;100729.16;;;14.49;80.30
47220;BME280;32961;51.936;4.788;2023-08-30T02:15:18;100740.94;;;14.49;80.23
47220;BME280;32961;51.936;4.788;2023-08-30T02:17:48;100727.63;;;14.46;80.47
47220;BME280;32961;51.936;4.788;2023-08-30T02:20:16;100727.63;;;14.46;80.37
47220;BME280;32961;51.936;4.788;2023-08-30T02:22:45;100719.59;;;14.44;80.50
47220;BME280;32961;51.936;4.788;2023-08-30T02:25:13;100722.50;;;14.43;80.38
47220;BME280;32961;51.936;4.788;2023-08-30T02:27:41;100719.09;;;14.41;80.45
47220;BME280;32961;51.936;4.788;2023-08-30T02:30:09;100723.34;;;14.35;80.29
47220;BME280;32961;51.936;4.788;2023-08-30T02:32:38;100721.47;;;14.36;80.30
47220;BME280;32961;51.936;4.788;2023-08-30T02:35:07;100711.41;;;14.28;80.66
47220;BME280;32961;51.936;4.788;2023-08-30T02:37:35;100707.66;;;14.29;80.65
47220;BME280;32961;51.936;4.788;2023-08-30T02:40:04;100711.59;;;14.26;80.82
47220;BME280;32961;51.936;4.788;2023-08-30T02:42:32;100711.59;;;14.26;80.79
47220;BME280;32961;51.936;4.788;2023-08-30T02:45:00;100710.72;;;14.26;80.84
47220;BME280;32961;51.936;4.788;2023-08-30T02:47:27;100707.16;;;14.25;80.78
47220;BME280;32961;51.936;4.788;2023-08-30T02:49:56;100700.47;;;14.20;80.95
47220;BME280;32961;51.936;4.788;2023-08-30T02:52:24;100691.94;;;14.15;81.17
47220;BME280;32961;51.936;4.788;2023-08-30T02:54:52;100685.97;;;14.11;81.14
47220;BME280;32961;51.936;4.788;2023-08-30T02:57:20;100683.75;;;14.06;81.61
47220;BME280;32961;51.936;4.788;2023-08-30T02:59:47;100682.91;;;14.06;81.68
47220;BME280;32961;51.936;4.788;2023-08-30T03:02:15;100668.22;;;14.07;81.61
47220;BME280;32961;51.936;4.788;2023-08-30T03:04:43;100677.13;;;14.09;81.57
47220;BME280;32961;51.936;4.788;2023-08-30T03:07:12;100665.66;;;14.05;81.89
47220;BME280;32961;51.936;4.788;2023-08-30T03:09:40;100659.53;;;14.03;81.61
47220;BME280;32961;51.936;4.788;2023-08-30T03:12:08;100661.75;;;14.00;81.88
47220;BME280;32961;51.936;4.788;2023-08-30T03:14:36;100652.19;;;13.95;81.98
47220;BME280;32961;51.936;4.788;2023-08-30T03:17:03;100642.63;;;13.91;81.82
47220;BME280;32961;51.936;4.788;2023-08-30T03:19:31;100649.09;;;13.90;81.80
47220;BME280;32961;51.936;4.788;2023-08-30T03:21:59;100640.56;;;13.85;81.73
47220;BME280;32961;51.936;4.788;2023-08-30T03:24:28;100634.78;;;13.80;81.91
47220;BME280;32961;51.936;4.788;2023-08-30T03:26:56;100628.81;;;13.76;82.00
47220;BME280;32961;51.936;4.788;2023-08-30T03:29:24;100622.66;;;13.74;82.20
47220;BME280;32961;51.936;4.788;2023-08-30T03:31:52;100615.00;;;13.70;82.11
47220;BME280;32961;51.936;4.788;2023-08-30T03:34:20;100611.38;;;13.69;82.30
47220;BME280;32961;51.936;4.788;2023-08-30T03:36:47;100607.97;;;13.67;82.62
47220;BME280;32961;51.936;4.788;2023-08-30T03:39:20;100611.91;;;13.64;82.59
47220;BME280;32961;51.936;4.788;2023-08-30T03:41:49;100602.03;;;13.63;82.67
47220;BME280;32961;51.936;4.788;2023-08-30T03:44:17;100604.06;;;13.61;83.06
47220;BME280;32961;51.936;4.788;2023-08-30T03:46:45;100604.91;;;13.62;83.07
47220;BME280;32961;51.936;4.788;2023-08-30T03:49:13;100604.91;;;13.62;83.33
47220;BME280;32961;51.936;4.788;2023-08-30T03:51:41;100596.06;;;13.60;83.50
47220;BME280;32961;51.936;4.788;2023-08-30T03:54:08;100591.94;;;13.56;83.78
47220;BME280;32961;51.936;4.788;2023-08-30T03:56:40;100582.72;;;13.48;84.04
47220;BME280;32961;51.936;4.788;2023-08-30T03:59:09;100590.75;;;13.50;83.62
47220;BME280;32961;51.936;4.788;2023-08-30T04:01:37;100601.81;;;13.48;83.87
47220;BME280;32961;51.936;4.788;2023-08-30T04:04:05;100593.81;;;13.47;84.15
47220;BME280;32961;51.936;4.788;2023-08-30T04:06:33;100591.78;;;13.49;84.18
47220;BME280;32961;51.936;4.788;2023-08-30T04:09:00;100591.09;;;13.47;84.36
47220;BME280;32961;51.936;4.788;2023-08-30T04:11:28;100589.53;;;13.44;84.05
47220;BME280;32961;51.936;4.788;2023-08-30T04:13:56;100585.09;;;13.43;84.15
47220;BME280;32961;51.936;4.788;2023-08-30T04:16:25;100585.09;;;13.43;84.17
47220;BME280;32961;51.936;4.788;2023-08-30T04:18:53;100574.38;;;13.42;84.46
47220;BME280;32961;51.936;4.788;2023-08-30T04:21:21;100567.53;;;13.38;84.48
47220;BME280;32961;51.936;4.788;2023-08-30T04:23:49;100572.28;;;13.36;84.72
47220;BME280;32961;51.936;4.788;2023-08-30T04:26:17;100567.16;;;13.32;84.61
47220;BME280;32961;51.936;4.788;2023-08-30T04:28:44;100571.59;;;13.33;84.31
47220;BME280;32961;51.936;4.788;2023-08-30T04:31:12;100575.34;;;13.32;84.78
47220;BME280;32961;51.936;4.788;2023-08-30T04:33:41;100569.03;;;13.32;85.05
47220;BME280;32961;51.936;4.788;2023-08-30T04:36:09;100562.72;;;13.31;84.75
47220;BME280;32961;51.936;4.788;2023-08-30T04:38:37;100563.59;;;13.32;84.74
47220;BME280;32961;51.936;4.788;2023-08-30T04:41:14;100559.16;;;13.31;85.05
47220;BME280;32961;51.936;4.788;2023-08-30T04:43:41;100559.16;;;13.31;85.41
47220;BME280;32961;51.936;4.788;2023-08-30T04:46:10;100560.00;;;13.31;85.38
47220;BME280;32961;51.936;4.788;2023-08-30T04:48:37;100558.81;;;13.34;85.39
47220;BME280;32961;51.936;4.788;2023-08-30T04:51:06;100555.22;;;13.33;85.70
47220;BME280;32961;51.936;4.788;2023-08-30T04:53:34;100550.63;;;13.34;85.87
47220;BME280;32961;51.936;4.788;2023-08-30T04:56:10;100553.88;;;13.38;86.21
47220;BME280;32961;51.936;4.788;2023-08-30T04:58:38;100552.16;;;13.37;86.03
47220;BME280;32961;51.936;4.788;2023-08-30T05:01:06;100557.31;;;13.40;86.16
47220;BME280;32961;51.936;4.788;2023-08-30T05:03:35;100545.00;;;13.36;86.26
47220;BME280;32961;51.936;4.788;2023-08-30T05:06:03;100559.00;;;13.41;86.35
47220;BME280;32961;51.936;4.788;2023-08-30T05:08:32;100561.41;;;13.44;86.46
47220;BME280;32961;51.936;4.788;2023-08-30T05:11:00;100562.94;;;13.46;86.78
47220;BME280;32961;51.936;4.788;2023-08-30T05:13:32;100566.19;;;13.50;87.17
47220;BME280;32961;51.936;4.788;2023-08-30T05:15:59;100566.84;;;13.52;87.29
47220;BME280;32961;51.936;4.788;2023-08-30T05:18:27;100580.00;;;13.57;87.57
47220;BME280;32961;51.936;4.788;2023-08-30T05:20:55;100582.22;;;13.61;87.39
47220;BME280;32961;51.936;4.788;2023-08-30T05:23:23;100583.94;;;13.62;87.49
47220;BME280;32961;51.936;4.788;2023-08-30T05:25:52;100589.03;;;13.66;87.81
47220;BME280;32961;51.936;4.788;2023-08-30T05:28:20;100586.13;;;13.67;88.19
47220;BME280;32961;51.936;4.788;2023-08-30T05:30:48;100571.44;;;13.68;88.83
47220;BME280;32961;51.936;4.788;2023-08-30T05:33:16;100572.16;;;13.70;89.32
47220;BME280;32961;51.936;4.788;2023-08-30T05:35:44;100577.44;;;13.72;90.07
47220;BME280;32961;51.936;4.788;2023-08-30T05:38:11;100566.50;;;13.72;90.69
47220;BME280;32961;51.936;4.788;2023-08-30T05:40:39;100569.41;;;13.70;91.24
47220;BME280;32961;51.936;4.788;2023-08-30T05:43:10;100557.66;;;13.70;91.94
47220;BME280;32961;51.936;4.788;2023-08-30T05:45:38;100546.03;;;13.68;92.42
47220;BME280;32961;51.936;4.788;2023-08-30T05:48:06;100545.69;;;13.71;93.16
47220;BME280;32961;51.936;4.788;2023-08-30T05:50:34;100552.19;;;13.70;93.73
47220;BME280;32961;51.936;4.788;2023-08-30T05:53:03;100546.72;;;13.70;94.51
47220;BME280;32961;51.936;4.788;2023-08-30T05:55:31;100547.56;;;13.70;95.59
47220;BME280;32961;51.936;4.788;2023-08-30T05:57:59;100542.28;;;13.69;95.59
47220;BME280;32961;51.936;4.788;2023-08-30T06:00:28;100544.16;;;13.68;96.61
47220;BME280;32961;51.936;4.788;2023-08-30T06:02:56;100537.84;;;13.68;96.88
47220;BME280;32961;51.936;4.788;2023-08-30T06:05:24;100534.25;;;13.67;97.30
47220;BME280;32961;51.936;4.788;2023-08-30T06:07:52;100535.44;;;13.64;97.69
47220;BME280;32961;51.936;4.788;2023-08-30T06:10:20;100532.72;;;13.64;98.31
47220;BME280;32961;51.936;4.788;2023-08-30T06:12:49;100520.13;;;13.63;98.97
47220;BME280;32961;51.936;4.788;2023-08-30T06:15:17;100517.53;;;13.62;98.96
47220;BME280;32961;51.936;4.788;2023-08-30T06:17:46;100521.28;;;13.61;99.57
47220;BME280;32961;51.936;4.788;2023-08-30T06:20:15;100512.25;;;13.60;99.79
47220;BME280;32961;51.936;4.788;2023-08-30T06:22:43;100507.81;;;13.59;100.00
47220;BME280;32961;51.936;4.788;2023-08-30T06:25:11;100503.25;;;13.60;100.00
47220;BME280;32961;51.936;4.788;2023-08-30T06:27:41;100498.63;;;13.60;100.00
47220;BME280;32961;51.936;4.788;2023-08-30T06:30:10;100507.00;;;13.59;100.00
47220;BME280;32961;51.936;4.788;2023-08-30T06:32:38;100512.44;;;13.59;100.00
47220;BME280;32961;51.936;4.788;2023-08-30T06:35:08;100514.16;;;13.60;100.00
47220;BME280;32961;51.936;4.788;2023-08-30T06:37:35;100509.72;;;13.59;100.00
47220;BME280;32961;51.936;4.788;2023-08-30T06:40:04;100507.81;;;13.59;100.00
47220;BME280;32961;51.936;4.788;2023-08-30T06:42:32;100500.00;;;13.56;100.00
47220;BME280;32961;51.936;4.788;2023-08-30T06:45:01;100505.59;;;13.55;100.00
47220;BME280;32961;51.936;4.788;2023-08-30T06:47:29;100505.78;;;13.53;100.00
47220;BME280;32961;51.936;4.788;2023-08-30T06:49:57;100495.06;;;13.52;100.00
47220;BME280;32961;51.936;4.788;2023-08-30T06:52:26;100503.94;;;13.54;100.00
47220;BME280;32961;51.936;4.788;2023-08-30T06:54:54;100486.50;;;13.55;100.00
47220;BME280;32961;51.936;4.788;2023-08-30T06:57:22;100490.09;;;13.55;100.00
47220;BME280;32961;51.936;4.788;2023-08-30T06:59:50;100489.22;;;13.55;100.00
47220;BME280;32961;51.936;4.788;2023-08-30T07:02:17;100490.09;;;13.55;100.00
47220;BME280;32961;51.936;4.788;2023-08-30T07:04:45;100481.91;;;13.55;100.00
47220;BME280;32961;51.936;4.788;2023-08-30T07:07:13;100483.63;;;13.56;100.00
47220;BME280;32961;51.936;4.788;2023-08-30T07:09:42;100478.16;;;13.56;100.00
47220;BME280;32961;51.936;4.788;2023-08-30T07:12:10;100471.66;;;13.57;100.00
47220;BME280;32961;51.936;4.788;2023-08-30T07:14:38;100462.28;;;13.52;100.00
47220;BME280;32961;51.936;4.788;2023-08-30T07:17:06;100456.47;;;13.55;100.00
47220;BME280;32961;51.936;4.788;2023-08-30T07:19:34;100459.56;;;13.60;100.00
47220;BME280;32961;51.936;4.788;2023-08-30T07:22:01;100454.94;;;13.60;100.00
47220;BME280;32961;51.936;4.788;2023-08-30T07:24:29;100457.34;;;13.63;100.00
47220;BME280;32961;51.936;4.788;2023-08-30T07:26:58;100447.75;;;13.68;100.00
47220;BME280;32961;51.936;4.788;2023-08-30T07:29:26;100447.56;;;13.69;100.00
47220;BME280;32961;51.936;4.788;2023-08-30T07:31:54;100449.47;;;13.69;100.00
47220;BME280;32961;51.936;4.788;2023-08-30T07:34:22;100437.69;;;13.68;100.00
47220;BME280;32961;51.936;4.788;2023-08-30T07:36:50;100439.19;;;13.71;100.00
47220;BME280;32961;51.936;4.788;2023-08-30T07:39:17;100435.44;;;13.72;100.00
47220;BME280;32961;51.936;4.788;2023-08-30T07:41:45;100431.69;;;13.73;100.00
47220;BME280;32961;51.936;4.788;2023-08-30T07:44:14;100427.94;;;13.74;100.00
47220;BME280;32961;51.936;4.788;2023-08-30T07:46:42;100427.59;;;13.77;100.00
47220;BME280;32961;51.936;4.788;2023-08-30T07:49:10;100425.53;;;13.79;100.00
47220;BME280;32961;51.936;4.788;2023-08-30T07:51:38;100423.69;;;13.79;100.00
47220;BME280;32961;51.936;4.788;2023-08-30T07:54:06;100427.06;;;13.82;100.00
47220;BME280;32961;51.936;4.788;2023-08-30T07:56:33;100421.25;;;13.85;100.00
47220;BME280;32961;51.936;4.788;2023-08-30T07:59:01;100417.31;;;13.87;100.00
47220;BME280;32961;51.936;4.788;2023-08-30T08:01:30;100415.44;;;13.88;100.00
47220;BME280;32961;51.936;4.788;2023-08-30T08:03:58;100420.75;;;13.89;100.00
47220;BME280;32961;51.936;4.788;2023-08-30T08:06:33;100413.56;;;13.88;100.00
47220;BME280;32961;51.936;4.788;2023-08-30T08:09:04;100416.31;;;13.88;100.00
47220;BME280;32961;51.936;4.788;2023-08-30T08:11:31;100419.88;;;13.89;100.00
47220;BME280;32961;51.936;4.788;2023-08-30T08:13:59;100418.66;;;13.91;100.00
47220;BME280;32961;51.936;4.788;2023-08-30T08:16:28;100422.06;;;13.93;100.00
47220;BME280;32961;51.936;4.788;2023-08-30T08:18:57;100422.56;;;13.97;100.00
47220;BME280;32961;51.936;4.788;2023-08-30T08:21:27;100422.06;;;14.02;100.00
47220;BME280;32961;51.936;4.788;2023-08-30T08:23:55;100419.97;;;14.04;100.00
47220;BME280;32961;51.936;4.788;2023-08-30T08:26:23;100417.91;;;14.06;100.00
47220;BME280;32961;51.936;4.788;2023-08-30T08:28:51;100411.06;;;14.10;100.00
47220;BME280;32961;51.936;4.788;2023-08-30T08:31:19;100415.16;;;14.14;100.00
47220;BME280;32961;51.936;4.788;2023-08-30T08:33:50;100411.72;;;14.20;100.00
47220;BME280;32961;51.936;4.788;2023-08-30T08:36:20;100406.75;;;14.24;100.00
47220;BME280;32961;51.936;4.788;2023-08-30T08:38:47;100404.13;;;14.31;100.00
47220;BME280;32961;51.936;4.788;2023-08-30T08:41:16;100407.16;;;14.36;100.00
47220;BME280;32961;51.936;4.788;2023-08-30T08:43:44;100408.16;;;14.43;100.00
47220;BME280;32961;51.936;4.788;2023-08-30T08:46:13;100408.09;;;14.51;100.00
47220;BME280;32961;51.936;4.788;2023-08-30T08:48:43;100398.50;;;14.55;100.00
47220;BME280;32961;51.936;4.788;2023-08-30T08:51:12;100401.19;;;14.64;100.00
47220;BME280;32961;51.936;4.788;2023-08-30T08:53:42;100410.59;;;14.69;100.00
47220;BME280;32961;51.936;4.788;2023-08-30T08:56:11;100407.13;;;14.75;100.00
47220;BME280;32961;51.936;4.788;2023-08-30T08:58:42;100410.94;;;14.89;100.00
47220;BME280;32961;51.936;4.788;2023-08-30T09:01:11;100408.41;;;15.03;100.00
47220;BME280;32961;51.936;4.788;2023-08-30T09:03:59;100417.72;;;15.17;100.00
47220;BME280;32961;51.936;4.788;2023-08-30T09:06:28;100417.84;;;15.38;100.00
47220;BME280;32961;51.936;4.788;2023-08-30T09:08:58;100421.25;;;15.55;100.00
47220;BME280;32961;51.936;4.788;2023-08-30T09:11:25;100427.41;;;15.57;100.00
47220;BME280;32961;51.936;4.788;2023-08-30T09:14:13;100417.47;;;15.56;100.00
47220;BME280;32961;51.936;4.788;2023-08-30T09:16:42;100420.50;;;15.62;100.00
47220;BME280;32961;51.936;4.788;2023-08-30T09:19:10;100425.31;;;15.60;100.00
47220;BME280;32961;51.936;4.788;2023-08-30T09:21:38;100423.91;;;15.64;100.00
47220;BME280;32961;51.936;4.788;2023-08-30T09:24:07;100408.91;;;15.75;100.00
47220;BME280;32961;51.936;4.788;2023-08-30T09:26:35;100406.47;;;15.95;100.00
47220;BME280;32961;51.936;4.788;2023-08-30T09:29:04;100421.28;;;16.00;100.00
47220;BME280;32961;51.936;4.788;2023-08-30T09:31:33;100417.13;;;16.04;100.00
47220;BME280;32961;51.936;4.788;2023-08-30T09:34:01;100423.59;;;16.33;100.00
47220;BME280;32961;51.936;4.788;2023-08-30T09:36:35;100426.31;;;16.48;99.48
47220;BME280;32961;51.936;4.788;2023-08-30T09:39:04;100426.75;;;16.52;99.08
47220;BME280;32961;51.936;4.788;2023-08-30T09:41:34;100435.66;;;16.39;98.37
47220;BME280;32961;51.936;4.788;2023-08-30T09:44:06;100434.88;;;16.24;96.73
47220;BME280;32961;51.936;4.788;2023-08-30T09:46:43;100430.94;;;16.11;97.05
47220;BME280;32961;51.936;4.788;2023-08-30T09:49:19;100425.28;;;15.98;96.82
47220;BME280;32961;51.936;4.788;2023-08-30T09:51:48;100431.38;;;16.00;97.71
47220;BME280;32961;51.936;4.788;2023-08-30T09:54:19;100429.31;;;16.02;97.63
47220;BME280;32961;51.936;4.788;2023-08-30T09:56:52;100419.41;;;16.01;97.62
47220;BME280;32961;51.936;4.788;2023-08-30T09:59:19;100425.63;;;15.95;95.28
47220;BME280;32961;51.936;4.788;2023-08-30T10:01:48;100426.09;;;15.98;95.32
47220;BME280;32961;51.936;4.788;2023-08-30T10:04:18;100422.81;;;16.03;95.33
47220;BME280;32961;51.936;4.788;2023-08-30T10:06:47;100425.88;;;16.15;96.22
47220;BME280;32961;51.936;4.788;2023-08-30T10:09:15;100430.53;;;16.14;94.72
47220;BME280;32961;51.936;4.788;2023-08-30T10:11:46;100427.22;;;16.19;94.74
47220;BME280;32961;51.936;4.788;2023-08-30T10:14:16;100439.28;;;16.25;94.71
47220;BME280;32961;51.936;4.788;2023-08-30T10:16:45;100435.34;;;16.27;95.28
47220;BME280;32961;51.936;4.788;2023-08-30T10:19:15;100446.63;;;16.39;94.68
47220;BME280;32961;51.936;4.788;2023-08-30T10:21:43;100446.38;;;16.34;91.80
47220;BME280;32961;51.936;4.788;2023-08-30T10:24:14;100443.72;;;16.26;91.22
47220;BME280;32961;51.936;4.788;2023-08-30T10:27:05;100452.63;;;16.28;92.19
47220;BME280;32961;51.936;4.788;2023-08-30T10:29:38;100458.09;;;16.28;91.51
47220;BME280;32961;51.936;4.788;2023-08-30T10:32:07;100464.16;;;16.23;90.10
47220;BME280;32961;51.936;4.788;2023-08-30T10:34:36;100465.19;;;16.22;90.06
47220;BME280;32961;51.936;4.788;2023-08-30T10:37:08;100467.19;;;16.13;88.32
47220;BME280;32961;51.936;4.788;2023-08-30T10:39:38;100493.00;;;16.19;89.56
47220;BME280;32961;51.936;4.788;2023-08-30T10:42:09;100507.81;;;16.10;94.25
47220;BME280;32961;51.936;4.788;2023-08-30T10:44:48;100501.13;;;15.97;96.85
47220;BME280;32961;51.936;4.788;2023-08-30T10:47:37;100492.06;;;15.97;98.49
47220;BME280;32961;51.936;4.788;2023-08-30T10:50:08;100494.13;;;15.95;98.66
47220;BME280;32961;51.936;4.788;2023-08-30T10:52:37;100489.13;;;15.98;99.10
47220;BME280;32961;51.936;4.788;2023-08-30T10:55:09;100494.06;;;16.03;99.89
47220;BME280;32961;51.936;4.788;2023-08-30T10:57:40;100484.19;;;16.09;100.00
47220;BME280;32961;51.936;4.788;2023-08-30T11:00:18;100483.53;;;16.22;100.00
47220;BME280;32961;51.936;4.788;2023-08-30T11:02:49;100491.19;;;15.96;100.00
47220;BME280;32961;51.936;4.788;2023-08-30T11:05:21;100485.81;;;16.03;100.00
47220;BME280;32961;51.936;4.788;2023-08-30T11:07:49;100489.41;;;16.03;100.00
47220;BME280;32961;51.936;4.788;2023-08-30T11:10:18;100493.94;;;15.96;100.00
47220;BME280;32961;51.936;4.788;2023-08-30T11:12:47;100497.44;;;16.20;100.00
47220;BME280;32961;51.936;4.788;2023-08-30T11:15:17;100494.19;;;16.46;100.00
47220;BME280;32961;51.936;4.788;2023-08-30T11:17:48;100493.47;;;16.74;100.00
47220;BME280;32961;51.936;4.788;2023-08-30T11:20:18;100495.09;;;17.05;100.00
47220;BME280;32961;51.936;4.788;2023-08-30T11:22:48;100484.56;;;17.30;98.21
47220;BME280;32961;51.936;4.788;2023-08-30T11:25:18;100488.06;;;17.46;95.61
47220;BME280;32961;51.936;4.788;2023-08-30T11:27:46;100483.09;;;17.56;95.03
47220;BME280;32961;51.936;4.788;2023-08-30T11:30:14;100490.28;;;17.57;92.37
47220;BME280;32961;51.936;4.788;2023-08-30T11:32:43;100485.63;;;17.58;84.93
47220;BME280;32961;51.936;4.788;2023-08-30T11:35:11;100493.63;;;17.88;86.77
47220;BME280;32961;51.936;4.788;2023-08-30T11:37:39;100495.28;;;18.04;83.44
47220;BME280;32961;51.936;4.788;2023-08-30T11:40:08;100494.03;;;18.06;79.52
47220;BME280;32961;51.936;4.788;2023-08-30T11:42:39;100483.94;;;18.27;79.85
47220;BME280;32961;51.936;4.788;2023-08-30T11:45:10;100489.78;;;18.46;76.46
47220;BME280;32961;51.936;4.788;2023-08-30T11:47:38;100484.72;;;18.56;77.34
47220;BME280;32961;51.936;4.788;2023-08-30T11:53:53;100487.06;;;18.10;73.14
47220;BME280;32961;51.936;4.788;2023-08-30T11:56:22;100497.16;;;18.03;75.06
47220;BME280;32961;51.936;4.788;2023-08-30T11:58:51;100504.56;;;18.03;77.12
47220;BME280;32961;51.936;4.788;2023-08-30T12:01:19;100494.47;;;18.10;75.00
47220;BME280;32961;51.936;4.788;2023-08-30T12:03:47;100499.50;;;18.48;75.52
47220;BME280;32961;51.936;4.788;2023-08-30T12:06:17;100496.50;;;18.36;73.60
47220;BME280;32961;51.936;4.788;2023-08-30T12:08:45;100500.50;;;18.34;72.79
47220;BME280;32961;51.936;4.788;2023-08-30T12:11:20;100488.34;;;18.15;74.13
47220;BME280;32961;51.936;4.788;2023-08-30T12:13:48;100511.28;;;18.35;73.70
47220;BME280;32961;51.936;4.788;2023-08-30T12:16:17;100510.28;;;18.43;69.61
47220;BME280;32961;51.936;4.788;2023-08-30T12:18:45;100510.75;;;18.53;65.59
47220;BME280;32961;51.936;4.788;2023-08-30T12:21:13;100501.28;;;18.63;68.71
47220;BME280;32961;51.936;4.788;2023-08-30T12:23:42;100494.34;;;18.87;69.24
47220;BME280;32961;51.936;4.788;2023-08-30T12:26:11;100508.81;;;19.02;64.45
47220;BME280;32961;51.936;4.788;2023-08-30T12:28:41;100505.44;;;19.14;67.13
47220;BME280;32961;51.936;4.788;2023-08-30T12:31:11;100498.88;;;19.08;65.06
47220;BME280;32961;51.936;4.788;2023-08-30T12:33:39;100510.75;;;19.22;64.21
47220;BME280;32961;51.936;4.788;2023-08-30T12:36:07;100513.47;;;19.08;64.58
47220;BME280;32961;51.936;4.788;2023-08-30T12:38:35;100529.97;;;18.95;66.32
47220;BME280;32961;51.936;4.788;2023-08-30T12:41:03;100523.66;;;18.53;68.32
47220;BME280;32961;51.936;4.788;2023-08-30T12:43:31;100516.94;;;18.27;70.80
47220;BME280;32961;51.936;4.788;2023-08-30T12:46:00;100523.66;;;18.53;72.56
47220;BME280;32961;51.936;4.788;2023-08-30T12:48:28;100529.78;;;18.48;70.80
47220;BME280;32961;51.936;4.788;2023-08-30T12:50:56;100536.25;;;18.34;74.09
47220;BME280;32961;51.936;4.788;2023-08-30T12:53:24;100535.72;;;18.17;76.36
47220;BME280;32961;51.936;4.788;2023-08-30T12:55:52;100537.66;;;18.16;80.55
47220;BME280;32961;51.936;4.788;2023-08-30T12:58:20;100532.09;;;18.09;80.45
47220;BME280;32961;51.936;4.788;2023-08-30T13:00:47;100543.97;;;17.88;80.42